Time;durP1;ratioP1;P1;durP2;ratioP2;P2;SDS_P1;SDS_P2;PMS_P1;PMS_P2;Temp;Humidity;BMP_temperature;BMP_pressure;BME280_temperature;BME280_humidity;BME280_pressure;Samples;Min_cycle;Max_cycle;Signal;HPM_P1;HPM_P2
2022/12/04 00:03:27;;;;;;;2.35;1.75;;;;;;;-1.31;83.13;101991.47;10282671;28;20050;-79
2022/12/04 00:08:29;;;;;;;6.85;3.15;;;;;;;-1.34;82.75;101996.34;10281752;28;20453;-79
2022/12/04 00:13:31;;;;;;;4.35;2.92;;;;;;;-1.35;82.94;101990.31;10265013;28;20671;-80
2022/12/04 00:18:33;;;;;;;3.05;2.45;;;;;;;-1.37;82.95;101986.69;10255460;28;20542;-81
2022/12/04 00:23:36;;;;;;;3.05;1.75;;;;;;;-1.42;83.09;101983.75;10289132;28;20045;-81
2022/12/04 00:28:37;;;;;;;6.22;2.38;;;;;;;-1.37;83.39;101986.69;10281480;28;20179;-79
2022/12/04 00:33:39;;;;;;;3.72;3.08;;;;;;;-1.34;83.37;101986.94;10281459;28;20043;-79
2022/12/04 00:38:41;;;;;;;5.93;3.75;;;;;;;-1.34;83.58;101978.34;10271133;28;20043;-79
2022/12/04 00:43:44;;;;;;;3.50;1.92;;;;;;;-1.30;84.03;101986.44;10294686;28;20038;-79
2022/12/04 00:48:46;;;;;;;5.75;3.28;;;;;;;-1.34;83.99;101974.09;10289060;28;20061;-79
2022/12/04 00:53:49;;;;;;;3.08;2.28;;;;;;;-1.38;83.96;101979.78;10286238;28;20062;-79
2022/12/04 00:58:53;;;;;;;4.38;2.92;;;;;;;-1.40;84.12;101985.56;10289187;28;20043;-80
2022/12/04 01:03:58;;;;;;;7.18;3.30;;;;;;;-1.33;84.24;101983.63;10287876;28;20456;-80
2022/12/04 01:09:03;;;;;;;1.00;0.80;;;;;;;-1.33;84.50;101993.91;10262411;28;20085;-79
2022/12/04 01:14:04;;;;;;;5.32;3.05;;;;;;;-1.36;84.52;101975.66;10286431;28;20045;-79
2022/12/04 01:19:08;;;;;;;8.30;3.80;;;;;;;-1.31;84.29;101976.94;10287214;28;20034;-79
2022/12/04 01:24:10;;;;;;;2.22;1.50;;;;;;;-1.32;84.83;101972.59;10285001;28;20492;-79
2022/12/04 01:29:11;;;;;;;7.68;3.28;;;;;;;-1.29;84.67;101972.84;10285634;28;20046;-80
2022/12/04 01:34:13;;;;;;;9.45;3.30;;;;;;;-1.29;84.64;101966.78;10309571;28;20042;-79
2022/12/04 01:39:14;;;;;;;4.75;3.55;;;;;;;-1.32;84.80;101964.88;10269379;28;20524;-79
2022/12/04 01:44:24;;;;;;;3.75;2.50;;;;;;;-1.28;84.79;101963.44;10285299;28;20543;-79
2022/12/04 01:49:40;;;;;;;2.92;2.63;;;;;;;-1.32;85.02;101953.69;10285102;28;20035;-79
2022/12/04 01:54:46;;;;;;;2.47;2.10;;;;;;;-1.35;84.87;101963.69;10273557;28;20116;-78
2022/12/04 01:59:57;;;;;;;1.70;1.60;;;;;;;-1.33;85.19;101947.66;10287056;28;20117;-79
2022/12/04 02:05:00;;;;;;;2.95;2.72;;;;;;;-1.41;84.96;101953.84;10283866;28;20044;-80
2022/12/04 02:10:05;;;;;;;3.33;2.38;;;;;;;-1.35;84.99;101951.78;10285282;28;20090;-79
2022/12/04 02:15:37;;;;;;;2.08;1.83;;;;;;;-1.31;85.42;101953.81;10284092;28;20110;-78
2022/12/04 02:20:51;;;;;;;2.72;2.45;;;;;;;-1.36;85.06;101956.78;10289350;28;20089;-81
2022/12/04 02:26:00;;;;;;;4.72;3.65;;;;;;;-1.36;85.42;101960.25;10283444;28;20114;-79
2022/12/04 02:31:06;;;;;;;2.30;2.10;;;;;;;-1.36;85.18;101957.69;10284085;28;20077;-78
2022/12/04 02:36:28;;;;;;;4.15;3.45;;;;;;;-1.30;85.44;101957.28;10266923;28;20054;-77
2022/12/04 02:41:40;;;;;;;3.33;3.03;;;;;;;-1.28;85.50;101958.31;10283426;28;20026;-79
2022/12/04 02:46:45;;;;;;;3.05;2.33;;;;;;;-1.29;85.61;101960.00;10259331;28;20110;-79
2022/12/04 02:51:49;;;;;;;4.43;3.33;;;;;;;-1.26;85.39;101956.78;10266572;28;20045;-78
2022/12/04 02:56:53;;;;;;;4.25;3.22;;;;;;;-1.32;85.52;101954.59;10281698;28;20472;-79
2022/12/04 03:01:59;;;;;;;3.53;2.25;;;;;;;-1.26;85.61;101956.78;10283070;28;20115;-79
2022/12/04 03:07:18;;;;;;;3.13;2.60;;;;;;;-1.20;85.60;101954.72;10282776;28;20039;-80
2022/12/04 03:12:20;;;;;;;4.93;3.60;;;;;;;-1.22;85.43;101951.09;10274046;28;20590;-80
2022/12/04 03:17:28;;;;;;;7.13;4.28;;;;;;;-1.24;85.72;101955.22;10264636;28;20035;-78
2022/12/04 03:22:33;;;;;;;1.27;1.17;;;;;;;-1.25;85.75;101951.78;10273329;28;20116;-79
2022/12/04 03:27:47;;;;;;;3.85;3.10;;;;;;;-1.23;85.81;101948.41;10264033;28;20046;-79
2022/12/04 03:32:59;;;;;;;3.40;2.80;;;;;;;-1.22;85.97;101950.22;10265032;28;20448;-79
2022/12/04 03:38:19;;;;;;;2.40;2.08;;;;;;;-1.20;86.06;101951.22;10282014;28;20038;-79
2022/12/04 03:43:53;;;;;;;2.80;2.60;;;;;;;-1.27;85.82;101937.88;10282317;28;20058;-78
2022/12/04 03:49:06;;;;;;;5.03;4.03;;;;;;;-1.29;86.10;101936.88;10248113;28;20058;-79
2022/12/04 03:54:15;;;;;;;9.98;3.75;;;;;;;-1.26;86.26;101934.53;10283922;28;20425;-79
2022/12/04 03:59:23;;;;;;;2.60;1.92;;;;;;;-1.19;86.53;101940.19;10265180;28;20440;-78
2022/12/04 04:04:30;;;;;;;2.20;1.65;;;;;;;-1.20;86.34;101933.25;10301478;28;20043;-78
2022/12/04 04:09:38;;;;;;;5.50;2.30;;;;;;;-1.20;86.47;101922.97;10279936;28;20047;-79
2022/12/04 04:25:40;;;;;;;2.35;2.03;;;;;;;-1.15;86.85;101929.41;10288413;28;20125;-79
2022/12/04 04:30:42;;;;;;;9.65;4.15;;;;;;;-1.20;87.19;101933.25;10280160;28;20046;-79
2022/12/04 04:36:01;;;;;;;3.38;2.67;;;;;;;-1.15;87.30;101942.25;10263063;28;20042;-81
2022/12/04 04:41:25;;;;;;;2.47;2.28;;;;;;;-1.13;87.55;101945.84;10286337;28;20038;-79
2022/12/04 04:46:36;;;;;;;3.30;2.88;;;;;;;-1.14;87.70;101941.47;10285714;28;20043;-80
2022/12/04 04:51:39;;;;;;;5.60;3.55;;;;;;;-1.09;87.86;101947.91;10288380;28;20043;-79
2022/12/04 04:56:43;;;;;;;3.38;1.60;;;;;;;-1.10;87.71;101946.09;10278820;28;20035;-79
2022/12/04 05:01:45;;;;;;;3.13;2.60;;;;;;;-1.07;87.84;101941.19;10255208;28;20043;-78
2022/12/04 05:06:47;;;;;;;3.70;2.38;;;;;;;-1.08;87.67;101947.13;10284754;28;20042;-79
2022/12/04 05:11:49;;;;;;;3.40;3.10;;;;;;;-1.03;88.18;101948.41;10282998;28;20043;-80
2022/12/04 05:16:50;;;;;;;2.85;2.22;;;;;;;-1.05;88.08;101941.31;10279529;28;20101;-79
2022/12/04 05:21:52;;;;;;;2.60;2.28;;;;;;;-1.02;88.33;101954.44;10263772;28;20042;-80
2022/12/04 05:26:53;;;;;;;2.85;2.53;;;;;;;-1.02;88.44;101954.44;10284655;28;20046;-79
2022/12/04 05:31:55;;;;;;;5.05;1.80;;;;;;;-1.03;88.56;101943.25;10286908;28;20386;-80
2022/12/04 05:36:56;;;;;;;5.95;3.35;;;;;;;-1.02;88.80;101945.06;10284754;28;20762;-80
2022/12/04 05:41:58;;;;;;;3.92;2.40;;;;;;;-0.96;88.63;101939.50;10287037;28;20385;-79
2022/12/04 05:46:59;;;;;;;2.90;2.35;;;;;;;-0.93;88.90;101939.75;10286287;28;20654;-79
2022/12/04 05:52:03;;;;;;;2.55;1.80;;;;;;;-0.91;88.74;101951.97;10260383;28;20039;-80
2022/12/04 05:57:05;;;;;;;3.78;3.22;;;;;;;-0.90;89.24;101950.31;10284100;28;20543;-80
2022/12/04 06:02:07;;;;;;;3.72;2.85;;;;;;;-0.84;89.09;101952.47;10268619;28;20070;-81
2022/12/04 06:07:09;;;;;;;1.80;1.65;;;;;;;-0.85;89.21;101949.00;10296603;28;20042;-79
2022/12/04 06:12:11;;;;;;;4.97;3.30;;;;;;;-0.81;89.37;101947.56;10301129;28;20034;-79
2022/12/04 06:17:12;;;;;;;1.27;1.05;;;;;;;-0.78;89.60;101947.81;10302497;28;20027;-80
2022/12/04 06:22:14;;;;;;;1.38;0.98;;;;;;;-0.75;89.55;101953.22;10304451;28;20050;-81
2022/12/04 06:27:15;;;;;;;3.30;3.00;;;;;;;-0.73;89.38;101938.81;10285881;28;20504;-78
2022/12/04 06:32:32;;;;;;;4.95;2.92;;;;;;;-0.74;89.42;101944.72;10298754;28;20248;-81
2022/12/04 06:37:33;;;;;;;4.90;2.42;;;;;;;-0.75;89.47;101950.63;10301307;28;20046;-80
2022/12/04 06:42:35;;;;;;;8.25;2.92;;;;;;;-0.71;89.32;101963.00;10303575;28;20069;-81
2022/12/04 06:47:36;;;;;;;4.97;3.22;;;;;;;-0.70;89.54;101962.22;10296984;28;20042;-80
2022/12/04 06:52:38;;;;;;;4.63;3.53;;;;;;;-0.65;89.42;101954.88;10291790;28;20047;-80
2022/12/04 06:57:40;;;;;;;4.22;3.22;;;;;;;-0.61;89.25;101962.97;10308649;28;20034;-81
2022/12/04 07:02:41;;;;;;;2.65;1.55;;;;;;;-0.56;89.50;101959.06;10299738;28;20043;-80
2022/12/04 07:07:43;;;;;;;5.22;3.28;;;;;;;-0.50;89.19;101960.38;10298593;28;20062;-81
2022/12/04 07:12:44;;;;;;;2.60;2.28;;;;;;;-0.45;88.99;101959.97;10298799;28;20120;-80
2022/12/04 07:17:46;;;;;;;6.97;3.20;;;;;;;-0.41;89.08;101963.66;10281530;28;20050;-80
2022/12/04 07:22:47;;;;;;;4.32;2.35;;;;;;;-0.33;89.11;101962.63;10265617;28;20049;-81
2022/12/04 07:27:49;;;;;;;4.40;3.25;;;;;;;-0.31;89.19;101968.78;10267920;28;20035;-80
2022/12/04 07:32:50;;;;;;;3.40;2.65;;;;;;;-0.27;88.85;101968.25;10316230;28;20078;-80
2022/12/04 07:37:52;;;;;;;2.35;1.77;;;;;;;-0.23;89.10;101964.25;10305930;28;20415;-81
2022/12/04 07:42:53;;;;;;;3.70;2.70;;;;;;;-0.19;88.77;101971.44;10312852;28;20058;-79
2022/12/04 07:47:55;;;;;;;3.58;1.58;;;;;;;-0.16;88.71;101973.38;10298816;28;20045;-80
2022/12/04 07:52:56;;;;;;;3.05;1.55;;;;;;;-0.12;88.64;101971.16;10298910;28;20085;-82
2022/12/04 07:57:58;;;;;;;3.25;2.65;;;;;;;-0.16;88.70;101978.50;10298229;28;20039;-80
2022/12/04 08:03:00;;;;;;;3.13;2.67;;;;;;;-0.23;88.41;101969.38;10295310;28;20093;-80
2022/12/04 08:08:02;;;;;;;4.13;2.17;;;;;;;-0.24;88.46;101968.50;10292532;28;20048;-80
2022/12/04 08:13:03;;;;;;;2.35;2.08;;;;;;;-0.19;88.53;101974.91;10305773;28;20035;-80
2022/12/04 08:18:05;;;;;;;4.72;3.15;;;;;;;-0.24;88.24;101983.94;10296219;28;20054;-81
2022/12/04 08:23:06;;;;;;;2.00;1.85;;;;;;;-0.21;88.44;101981.63;10302526;28;20093;-80
2022/12/04 08:28:08;;;;;;;1.58;1.40;;;;;;;-0.20;88.16;101996.25;10303642;28;20552;-80
2022/12/04 08:33:09;;;;;;;3.17;2.08;;;;;;;-0.15;88.53;101995.75;10302508;28;20046;-81
2022/12/04 08:38:11;;;;;;;1.77;1.65;;;;;;;-0.17;88.14;101994.72;10300074;28;20047;-80
2022/12/04 08:43:12;;;;;;;5.90;2.50;;;;;;;-0.13;88.00;101999.34;10319147;28;20038;-80
2022/12/04 08:48:14;;;;;;;3.40;2.50;;;;;;;-0.10;87.81;101997.03;10302791;28;20512;-81
2022/12/04 08:53:15;;;;;;;2.75;2.05;;;;;;;-0.09;87.74;101998.78;10292234;28;20094;-80
2022/12/04 08:58:18;;;;;;;3.30;2.00;;;;;;;-0.01;87.92;102002.91;10306953;28;20141;-81
2022/12/04 09:03:21;;;;;;;2.00;1.67;;;;;;;-0.02;87.70;101998.50;10293355;28;20051;-80
2022/12/04 09:08:31;;;;;;;3.70;2.83;;;;;;;0.01;87.68;101991.03;10310313;28;20039;-80
2022/12/04 09:13:34;;;;;;;3.50;2.25;;;;;;;0.05;87.55;101993.06;10293382;28;20113;-81
2022/12/04 09:18:36;;;;;;;4.72;2.08;;;;;;;0.08;87.19;101998.47;10311481;28;20073;-80
2022/12/04 09:23:38;;;;;;;2.65;2.33;;;;;;;0.15;87.33;102005.91;10310984;28;20051;-80
2022/12/04 09:28:40;;;;;;;3.55;2.70;;;;;;;0.14;86.84;101998.94;10299957;28;20038;-80
2022/12/04 09:33:41;;;;;;;2.53;1.17;;;;;;;0.22;86.92;102002.13;10316925;28;20089;-80
2022/12/04 09:38:51;;;;;;;3.17;1.70;;;;;;;0.25;86.75;102001.47;10312567;28;20047;-81
2022/12/04 09:43:58;;;;;;;3.70;2.30;;;;;;;0.29;86.71;101998.38;10299728;28;20047;-80
2022/12/04 09:49:06;;;;;;;4.30;3.33;;;;;;;0.30;86.68;101984.69;10308024;28;20084;-80
2022/12/04 09:54:17;;;;;;;1.65;1.55;;;;;;;0.28;86.57;101986.25;10312721;28;20082;-81
2022/12/04 09:59:22;;;;;;;4.97;4.18;;;;;;;0.30;86.79;101974.38;10286991;28;20314;-80
2022/12/04 10:04:24;;;;;;;4.47;3.55;;;;;;;0.29;86.38;101977.75;10304293;28;20496;-80
2022/12/04 10:09:28;;;;;;;3.33;2.70;;;;;;;0.32;86.50;101968.56;10286129;28;20034;-80
2022/12/04 10:14:51;;;;;;;5.10;2.60;;;;;;;0.39;86.40;101957.06;10314411;28;20050;-80
2022/12/04 10:20:00;;;;;;;5.78;4.05;;;;;;;0.46;86.69;101956.72;10304138;28;20564;-81
2022/12/04 10:25:10;;;;;;;3.10;2.00;;;;;;;0.45;86.45;101961.78;10283089;28;20093;-80
2022/12/04 10:30:19;;;;;;;4.07;3.20;;;;;;;0.45;86.65;101954.97;10312845;28;20111;-80
2022/12/04 10:35:24;;;;;;;3.92;3.42;;;;;;;0.47;86.42;101958.53;10307178;28;20631;-81
2022/12/04 10:40:36;;;;;;;6.68;3.60;;;;;;;0.52;86.32;101946.00;10307905;28;20188;-80
2022/12/04 10:45:38;;;;;;;6.50;4.05;;;;;;;0.55;86.50;101951.38;10311364;28;20061;-82
2022/12/04 10:50:39;;;;;;;3.65;3.33;;;;;;;0.55;86.34;101950.50;10313486;28;20057;-81
2022/12/04 10:55:41;;;;;;;2.88;2.05;;;;;;;0.57;86.52;101955.00;10318099;28;20488;-80
2022/12/04 11:00:44;;;;;;;3.03;2.65;;;;;;;0.63;86.64;101954.53;10296657;28;20145;-80
2022/12/04 11:05:59;;;;;;;3.97;1.60;;;;;;;0.66;86.64;101960.84;10322245;28;20106;-81
2022/12/04 11:11:05;;;;;;;2.55;1.80;;;;;;;0.67;86.57;101951.44;10296196;28;20054;-81
2022/12/04 11:16:07;;;;;;;2.55;2.33;;;;;;;0.71;86.49;101948.31;10312713;28;20046;-80
2022/12/04 11:21:24;;;;;;;2.00;1.75;;;;;;;0.76;86.76;101949.53;10305758;28;20120;-80
2022/12/04 11:26:33;;;;;;;4.72;3.53;;;;;;;0.76;86.45;101941.81;10311122;28;20049;-80
2022/12/04 11:31:35;;;;;;;6.00;2.90;;;;;;;0.79;86.44;101925.69;10283629;28;20043;-79
2022/12/04 11:36:39;;;;;;;3.17;2.70;;;;;;;0.81;86.48;101919.84;10281608;28;20053;-80
2022/12/04 11:41:41;;;;;;;5.18;3.45;;;;;;;0.80;86.66;101918.06;10292360;28;20629;-81
2022/12/04 11:46:54;;;;;;;2.58;1.92;;;;;;;0.84;87.07;101912.34;10283469;28;20058;-79
2022/12/04 11:52:19;;;;;;;5.35;2.60;;;;;;;0.94;86.92;101908.75;10282643;28;20074;-79
2022/12/04 11:57:30;;;;;;;3.90;2.72;;;;;;;0.98;86.90;101907.31;10281406;28;20396;-79
2022/12/04 12:03:12;;;;;;;5.97;2.88;;;;;;;0.88;86.87;101911.78;10273636;28;20579;-79
2022/12/04 12:08:48;;;;;;;3.22;1.92;;;;;;;0.87;86.79;101920.31;10238006;28;20087;-80
2022/12/04 12:13:56;;;;;;;3.95;1.88;;;;;;;0.84;86.87;101903.69;10282213;28;20101;-79
2022/12/04 12:19:09;;;;;;;3.63;2.92;;;;;;;0.86;86.87;101908.19;10280563;28;20046;-80
2022/12/04 12:24:32;;;;;;;9.02;3.60;;;;;;;0.87;87.02;101909.06;10296377;28;20381;-80
2022/12/04 12:29:46;;;;;;;1.70;1.58;;;;;;;0.92;87.36;101896.56;10272220;28;20539;-80
2022/12/04 12:34:48;;;;;;;3.78;2.70;;;;;;;0.92;87.30;101905.19;10281670;28;20452;-79
2022/12/04 12:40:00;;;;;;;3.65;1.88;;;;;;;0.97;87.16;101906.41;10256280;28;20042;-79
2022/12/04 12:45:18;;;;;;;3.80;3.05;;;;;;;1.02;87.20;101906.72;10289708;28;20074;-79
2022/12/04 12:50:43;;;;;;;3.17;1.95;;;;;;;1.09;87.46;101893.50;10271935;28;20448;-80
2022/12/04 12:55:49;;;;;;;2.97;2.60;;;;;;;1.10;87.15;101897.91;10289591;28;20047;-80
2022/12/04 13:01:15;;;;;;;4.80;3.05;;;;;;;1.14;87.20;101884.44;10289421;28;20035;-79
2022/12/04 13:06:23;;;;;;;7.32;3.22;;;;;;;1.17;87.14;101884.66;10287321;28;20043;-80
2022/12/04 13:11:27;;;;;;;3.17;1.67;;;;;;;1.20;87.40;101882.31;10295215;28;20042;-80
2022/12/04 13:16:40;;;;;;;4.25;2.67;;;;;;;1.19;87.30;101867.59;10287133;28;20046;-79
2022/12/04 13:21:47;;;;;;;6.15;2.47;;;;;;;1.25;87.26;101859.41;10285967;28;20050;-79
2022/12/04 13:27:02;;;;;;;4.90;3.03;;;;;;;1.25;87.64;101856.84;10287269;28;20046;-82
2022/12/04 13:32:28;;;;;;;2.83;2.35;;;;;;;1.30;87.47;101850.31;10303937;28;20039;-81
2022/12/04 13:37:55;;;;;;;2.60;1.77;;;;;;;1.30;87.49;101862.31;10314348;28;20114;-82
2022/12/04 13:43:32;;;;;;;3.28;2.08;;;;;;;1.33;87.34;101857.38;10316338;28;20045;-81
2022/12/04 13:48:39;;;;;;;2.30;1.58;;;;;;;1.30;87.39;101859.75;10304427;28;20039;-80
2022/12/04 13:53:44;;;;;;;1.85;1.10;;;;;;;1.31;87.76;101856.38;10301583;28;20057;-81
2022/12/04 13:58:57;;;;;;;5.05;2.58;;;;;;;1.33;87.65;101857.38;10303858;28;20616;-80
2022/12/04 14:03:58;;;;;;;2.22;1.63;;;;;;;1.39;87.89;101852.66;10325793;28;20766;-81
2022/12/04 14:09:04;;;;;;;3.45;2.20;;;;;;;1.42;88.26;101850.28;10298296;28;20047;-81
2022/12/04 14:14:23;;;;;;;1.85;1.55;;;;;;;1.42;88.22;101845.13;10311794;28;20393;-81
2022/12/04 14:19:32;;;;;;;4.00;2.75;;;;;;;1.42;88.22;101856.34;10315502;28;20047;-81
2022/12/04 14:24:38;;;;;;;1.60;1.47;;;;;;;1.44;88.58;101853.84;10323563;28;20088;-83
2022/12/04 14:29:46;;;;;;;6.03;3.67;;;;;;;1.43;88.36;101846.94;10299140;28;20042;-83
2022/12/04 14:34:48;;;;;;;5.82;2.88;;;;;;;1.45;88.98;101849.63;10314853;28;20060;-84
2022/12/04 14:39:51;;;;;;;3.15;2.78;;;;;;;1.44;89.04;101837.47;10316498;28;20062;-82
2022/12/04 14:44:58;;;;;;;3.67;1.98;;;;;;;1.45;89.10;101839.28;10332499;28;20053;-84
2022/12/04 14:50:21;;;;;;;4.97;3.55;;;;;;;1.47;88.80;101829.97;10309403;28;20160;-82
2022/12/04 14:55:28;;;;;;;3.53;3.22;;;;;;;1.44;89.18;101825.47;10318011;28;20065;-83
2022/12/04 15:00:30;;;;;;;3.92;2.75;;;;;;;1.45;89.23;101827.25;10333603;28;20074;-83
2022/12/04 15:05:33;;;;;;;3.60;2.53;;;;;;;1.47;89.02;101820.56;10316312;28;20098;-82
2022/12/04 15:15:54;;;;;;;3.72;2.65;;;;;;;1.47;88.90;101823.13;10299840;28;20089;-81
2022/12/04 15:20:59;;;;;;;1.35;1.05;;;;;;;1.55;88.99;101837.47;10317539;28;20042;-83
2022/12/04 15:26:04;;;;;;;3.58;2.60;;;;;;;1.54;89.02;101845.97;10299576;28;20114;-83
2022/12/04 15:31:14;;;;;;;3.45;3.03;;;;;;;1.58;88.97;101839.38;10314841;28;20055;-81
2022/12/04 15:36:38;;;;;;;9.20;1.67;;;;;;;1.62;89.03;101840.47;10292073;28;20043;-81
2022/12/04 15:41:39;;;;;;;3.08;2.22;;;;;;;1.62;88.88;101837.88;10268266;28;20039;-81
2022/12/04 15:46:42;;;;;;;3.50;2.15;;;;;;;1.64;88.54;101844.06;10270253;28;20047;-81
2022/12/04 15:51:45;;;;;;;1.10;0.88;;;;;;;1.65;88.67;101848.44;10304399;28;20053;-83
2022/12/04 15:57:01;;;;;;;1.55;1.25;;;;;;;1.66;88.80;101847.66;10291819;28;20043;-81
2022/12/04 16:02:19;;;;;;;3.63;2.45;;;;;;;1.72;88.51;101850.66;10284736;28;20125;-81
2022/12/04 16:07:26;;;;;;;13.15;1.85;;;;;;;1.74;88.60;101861.97;10291816;28;20054;-81
2022/12/04 16:12:30;;;;;;;3.20;1.38;;;;;;;1.76;88.71;101857.84;10295846;28;20042;-82
2022/12/04 16:17:33;;;;;;;2.13;1.60;;;;;;;1.77;88.45;101864.78;10297386;28;20497;-81
2022/12/04 16:22:34;;;;;;;6.78;3.15;;;;;;;1.77;88.39;101865.69;10299938;28;20047;-82
2022/12/04 16:27:36;;;;;;;4.18;3.80;;;;;;;1.79;88.34;101867.47;10309045;28;20042;-81
2022/12/04 16:32:38;;;;;;;5.88;2.83;;;;;;;1.79;88.45;101872.63;10309291;28;20061;-82
2022/12/04 16:37:39;;;;;;;3.97;3.13;;;;;;;1.80;88.48;101870.16;10312018;28;20045;-80
2022/12/04 16:42:41;;;;;;;3.35;2.15;;;;;;;1.80;88.27;101875.31;10306005;28;20107;-82
2022/12/04 16:47:44;;;;;;;3.22;2.85;;;;;;;1.85;88.23;101878.25;10290189;28;20828;-80
2022/12/04 16:52:45;;;;;;;1.13;1.02;;;;;;;1.89;88.41;101864.72;10314825;28;20039;-82
2022/12/04 16:57:47;;;;;;;2.83;2.15;;;;;;;1.86;88.50;101870.59;10287742;28;20574;-83
2022/12/04 17:02:49;;;;;;;4.30;2.97;;;;;;;1.88;88.67;101858.69;10288335;28;20047;-82
2022/12/04 17:07:50;;;;;;;2.20;1.77;;;;;;;1.92;88.13;101867.53;10311191;28;20039;-82
2022/12/04 17:12:53;;;;;;;3.90;2.10;;;;;;;1.90;88.54;101861.38;10304545;28;20070;-84
2022/12/04 17:17:55;;;;;;;2.20;1.65;;;;;;;1.93;88.60;101854.72;10321039;28;20034;-84
2022/12/04 17:22:57;;;;;;;2.80;1.60;;;;;;;1.93;88.58;101856.41;10316998;28;20072;-84
2022/12/04 17:27:59;;;;;;;1.20;1.00;;;;;;;1.96;88.67;101855.75;10315615;28;20042;-83
2022/12/04 17:33:00;;;;;;;4.25;3.50;;;;;;;1.99;88.47;101856.84;10299824;28;20047;-82
2022/12/04 17:38:02;;;;;;;2.13;1.73;;;;;;;2.01;88.65;101864.69;10311110;28;20043;-81
2022/12/04 17:43:06;;;;;;;1.67;1.40;;;;;;;2.02;88.33;101871.66;10318497;28;20066;-81
2022/12/04 17:48:08;;;;;;;4.53;2.45;;;;;;;2.02;88.52;101869.97;10315273;28;20047;-81
2022/12/04 17:53:09;;;;;;;8.10;3.95;;;;;;;2.05;89.17;101877.91;10291228;28;20062;-81
2022/12/04 17:58:11;;;;;;;4.78;2.58;;;;;;;2.07;89.10;101872.84;10318568;28;20038;-81
2022/12/04 18:03:12;;;;;;;3.88;2.60;;;;;;;2.11;88.86;101880.03;10319899;28;20130;-82
2022/12/04 18:08:14;;;;;;;11.43;3.13;;;;;;;2.11;89.11;101878.34;10306742;28;20066;-82
2022/12/04 18:13:16;;;;;;;3.40;1.83;;;;;;;2.13;88.89;101875.84;10314975;28;20046;-82
2022/12/04 18:18:17;;;;;;;3.28;2.70;;;;;;;2.20;89.32;101872.03;10311648;28;20050;-82
2022/12/04 18:23:19;;;;;;;5.97;2.72;;;;;;;2.24;89.22;101876.63;10313200;28;20043;-82
2022/12/04 18:28:20;;;;;;;4.97;3.70;;;;;;;2.25;89.45;101875.81;10313606;28;20043;-82
2022/12/04 18:33:22;;;;;;;4.28;3.33;;;;;;;2.26;89.27;101878.50;10316310;28;20050;-81
2022/12/04 18:38:25;;;;;;;3.30;1.95;;;;;;;2.28;89.41;101882.09;10312995;28;20086;-82
2022/12/04 18:43:27;;;;;;;3.80;2.78;;;;;;;2.30;89.40;101880.50;10298032;28;20043;-82
2022/12/04 18:48:29;;;;;;;5.35;3.05;;;;;;;2.29;89.43;101889.03;10314492;28;20077;-84
2022/12/04 18:53:30;;;;;;;4.90;3.05;;;;;;;2.34;89.33;101888.47;10298156;28;20110;-82
2022/12/04 18:58:32;;;;;;;6.20;2.75;;;;;;;2.32;89.57;101893.53;10295387;28;20035;-83
2022/12/04 19:03:33;;;;;;;6.65;4.00;;;;;;;2.37;89.49;101897.34;10300718;28;20057;-84
2022/12/04 19:08:35;;;;;;;7.72;3.45;;;;;;;2.38;89.63;101893.94;10293028;28;20035;-84
2022/12/04 19:13:43;;;;;;;3.72;2.22;;;;;;;2.40;89.85;101896.63;10310288;28;20235;-83
2022/12/04 19:18:45;;;;;;;3.92;2.58;;;;;;;2.40;90.12;101901.81;10304128;28;20035;-84
2022/12/04 19:23:53;;;;;;;5.00;2.30;;;;;;;2.42;89.93;101903.72;10317010;28;20043;-85
2022/12/04 19:28:56;;;;;;;2.35;2.03;;;;;;;2.48;90.00;101895.47;10318477;28;20039;-84
2022/12/04 19:33:58;;;;;;;5.18;3.08;;;;;;;2.48;89.97;101895.47;10309112;28;20401;-84
2022/12/04 19:39:00;;;;;;;5.80;3.03;;;;;;;2.41;89.82;101890.69;10310393;28;20061;-82
2022/12/04 19:44:02;;;;;;;3.95;2.53;;;;;;;2.42;90.21;101882.16;10314572;28;20080;-84
2022/12/04 19:49:24;;;;;;;6.53;3.92;;;;;;;2.50;90.19;101877.47;10318423;28;20038;-85
2022/12/04 19:54:26;;;;;;;3.88;2.28;;;;;;;2.52;90.40;101875.88;10308067;28;20035;-85
2022/12/04 19:59:28;;;;;;;2.83;1.98;;;;;;;2.56;90.31;101867.56;10291404;28;20049;-84
2022/12/04 20:04:38;;;;;;;5.93;4.00;;;;;;;2.52;90.42;101874.19;10315987;28;20049;-82
2022/12/04 20:09:39;;;;;;;4.03;3.10;;;;;;;2.58;90.52;101874.63;10316817;28;20070;-84
2022/12/04 20:14:41;;;;;;;3.65;2.55;;;;;;;2.63;90.26;101870.63;10315987;28;20043;-83
2022/12/04 20:19:43;;;;;;;5.35;2.63;;;;;;;2.65;90.40;101875.91;10313344;28;20097;-82
2022/12/04 20:24:44;;;;;;;3.35;2.58;;;;;;;2.71;90.47;101878.03;10279474;28;20313;-84
2022/12/04 20:29:46;;;;;;;2.28;2.03;;;;;;;2.69;90.68;101858.91;10314023;28;20034;-83
2022/12/04 20:34:47;;;;;;;6.53;3.13;;;;;;;2.65;90.57;101871.63;10313501;28;20106;-83
2022/12/04 20:39:49;;;;;;;3.30;2.45;;;;;;;2.72;90.41;101853.94;10313799;28;20045;-85
2022/12/04 20:44:50;;;;;;;4.22;2.22;;;;;;;2.75;90.56;101844.69;10296062;28;20046;-83
2022/12/04 20:49:51;;;;;;;11.45;2.42;;;;;;;2.71;90.65;101844.41;10315258;28;20411;-82
2022/12/04 20:54:53;;;;;;;7.68;3.60;;;;;;;2.73;90.77;101842.78;10328511;28;20035;-82
2022/12/04 20:59:54;;;;;;;5.63;2.72;;;;;;;2.75;90.89;101846.41;10304107;28;20077;-84
2022/12/04 21:04:56;;;;;;;4.18;3.08;;;;;;;2.76;90.97;101841.31;10319709;28;20042;-84
2022/12/04 21:09:58;;;;;;;4.20;2.45;;;;;;;2.81;90.98;101839.91;10304359;28;20118;-82
2022/12/04 21:20:20;;;;;;;2.50;1.95;;;;;;;2.90;90.73;101833.53;10318186;28;20049;-83
2022/12/04 21:25:24;;;;;;;4.65;2.10;;;;;;;2.95;91.08;101833.03;10319830;28;20042;-84
2022/12/04 21:30:25;;;;;;;3.60;2.08;;;;;;;2.95;90.94;101822.69;10315868;28;20062;-84
2022/12/04 21:35:28;;;;;;;3.28;1.83;;;;;;;2.96;90.79;101821.91;10327148;28;20073;-83
2022/12/04 21:40:30;;;;;;;3.22;1.85;;;;;;;3.06;90.83;101830.25;10310281;28;20038;-83
2022/12/04 21:45:31;;;;;;;4.65;2.28;;;;;;;3.09;90.81;101817.53;10319369;28;20045;-83
2022/12/04 21:50:33;;;;;;;3.17;2.22;;;;;;;3.11;90.77;101815.94;10314609;28;20047;-83
2022/12/04 21:55:35;;;;;;;5.47;3.17;;;;;;;3.12;90.92;101822.88;10321684;28;20042;-82
2022/12/04 22:00:36;;;;;;;4.60;2.53;;;;;;;3.07;90.71;101806.19;10322320;28;20069;-84
2022/12/04 22:05:39;;;;;;;5.10;3.38;;;;;;;3.05;90.80;101812.94;10324166;28;20047;-83
2022/12/04 22:10:43;;;;;;;4.20;2.85;;;;;;;3.09;90.81;101814.94;10303180;28;20058;-82
2022/12/04 22:15:45;;;;;;;2.42;1.33;;;;;;;3.06;90.94;101818.22;10302567;28;20097;-82
2022/12/04 22:20:48;;;;;;;9.85;2.83;;;;;;;3.04;90.60;101822.41;10318563;28;20039;-84
2022/12/04 22:25:49;;;;;;;1.90;1.58;;;;;;;3.10;90.93;101827.97;10317989;28;20039;-84
2022/12/04 22:30:50;;;;;;;2.58;1.70;;;;;;;3.07;91.03;101820.00;10317204;28;20054;-83
2022/12/04 22:35:52;;;;;;;5.63;2.17;;;;;;;3.07;91.15;101821.72;10335713;28;20065;-84
2022/12/04 22:40:53;;;;;;;3.50;1.88;;;;;;;3.13;90.90;101822.09;10318637;28;20069;-83
2022/12/04 22:45:56;;;;;;;4.28;2.95;;;;;;;3.14;91.15;101808.38;10316264;28;20036;-82
2022/12/04 22:51:03;;;;;;;4.40;1.58;;;;;;;3.11;91.19;101813.34;10314807;28;20043;-82
2022/12/04 22:56:12;;;;;;;3.70;2.42;;;;;;;3.13;91.16;101815.22;10315310;28;20053;-82
2022/12/04 23:01:19;;;;;;;6.22;1.90;;;;;;;3.14;91.28;101813.56;10305346;28;20053;-82
2022/12/04 23:06:22;;;;;;;9.20;1.67;;;;;;;3.17;91.22;101811.16;10315001;28;20241;-84
2022/12/04 23:11:25;;;;;;;2.35;1.60;;;;;;;3.14;91.16;101808.38;10313990;28;20078;-82
2022/12/04 23:16:29;;;;;;;3.08;2.13;;;;;;;3.15;91.26;101807.56;10291344;28;20051;-83
2022/12/04 23:21:32;;;;;;;5.05;2.20;;;;;;;3.16;91.36;101809.34;10309143;28;20420;-83
2022/12/04 23:26:36;;;;;;;4.45;2.72;;;;;;;3.19;91.30;101801.78;10306051;28;20051;-82
2022/12/04 23:31:38;;;;;;;2.38;1.38;;;;;;;3.24;91.31;101808.13;10338350;28;20046;-83
2022/12/04 23:36:40;;;;;;;2.17;1.73;;;;;;;3.25;91.10;101811.63;10320091;28;20050;-81
2022/12/04 23:41:41;;;;;;;5.50;2.65;;;;;;;3.26;91.39;101808.22;10305030;28;20047;-84
2022/12/04 23:46:43;;;;;;;1.48;1.02;;;;;;;3.28;91.17;101797.19;10306141;28;20038;-82
2022/12/04 23:51:44;;;;;;;3.35;2.22;;;;;;;3.28;90.98;101807.53;10289568;28;20038;-82
2022/12/04 23:56:46;;;;;;;1.60;1.42;;;;;;;3.29;91.13;101798.97;10305620;28;20102;-83
